Time;durP1;ratioP1;P1;durP2;ratioP2;P2;SDS_P1;SDS_P2;PMS_P1;PMS_P2;Temp;Humidity;BMP_temperature;BMP_pressure;BME280_temperature;BME280_humidity;BME280_pressure;Samples;Min_cycle;Max_cycle;Signal;HPM_P1;HPM_P2
2021/01/16 00:02:04;;;;;;;10.80;6.10;;;;;;;0.77;84.76;102246.41;4941597;29;20027;-79
2021/01/16 00:04:30;;;;;;;10.13;5.50;;;;;;;0.71;85.04;102245.53;4925095;29;20567;-79
2021/01/16 00:06:55;;;;;;;10.13;5.72;;;;;;;0.75;85.00;102240.53;4936940;28;20043;-80
2021/01/16 00:09:22;;;;;;;12.30;5.55;;;;;;;0.82;84.18;102243.78;4924367;29;20042;-79
2021/01/16 00:11:48;;;;;;;9.90;5.13;;;;;;;0.81;84.32;102237.66;4944459;28;20488;-79
2021/01/16 00:14:14;;;;;;;9.40;5.00;;;;;;;0.83;84.60;102238.22;4936443;28;20312;-79
2021/01/16 00:16:40;;;;;;;10.48;5.65;;;;;;;0.82;84.90;102223.38;4938219;28;20042;-79
2021/01/16 00:19:06;;;;;;;9.35;5.03;;;;;;;0.79;84.46;102225.75;4930452;28;20036;-78
2021/01/16 00:21:31;;;;;;;7.43;5.03;;;;;;;0.74;84.13;102226.47;4939086;29;20528;-79
2021/01/16 00:23:56;;;;;;;8.43;5.25;;;;;;;0.72;84.03;102222.47;4963254;28;20039;-78
2021/01/16 00:26:22;;;;;;;9.32;5.10;;;;;;;0.77;83.91;102225.97;4933736;28;20031;-79
2021/01/16 00:28:47;;;;;;;9.88;5.25;;;;;;;0.71;83.67;102224.34;4952327;28;20062;-79
2021/01/16 00:31:13;;;;;;;8.35;4.60;;;;;;;0.66;84.10;102224.28;4954310;29;20035;-79
2021/01/16 00:33:38;;;;;;;12.02;5.20;;;;;;;0.73;83.77;102229.38;4943962;28;20042;-79
2021/01/16 00:36:05;;;;;;;10.55;5.38;;;;;;;0.67;83.66;102225.06;4930995;28;20031;-79
2021/01/16 00:38:38;;;;;;;8.90;5.00;;;;;;;0.59;84.00;102223.69;4955893;28;20035;-79
2021/01/16 00:41:04;;;;;;;11.50;5.47;;;;;;;0.75;83.60;102228.09;4943895;28;20054;-80
2021/01/16 00:43:29;;;;;;;13.93;5.43;;;;;;;0.78;83.47;102224.13;4964473;28;21314;-79
2021/01/16 00:45:54;;;;;;;7.25;4.55;;;;;;;0.60;83.15;102219.97;4953054;28;20049;-78
2021/01/16 00:48:23;;;;;;;8.30;5.55;;;;;;;0.66;82.64;102221.63;4945172;29;20046;-78
2021/01/16 00:50:52;;;;;;;10.57;5.55;;;;;;;0.69;82.49;102222.97;4943830;29;20039;-78
2021/01/16 00:53:24;;;;;;;10.32;5.43;;;;;;;0.68;82.82;102224.00;4935005;28;20030;-79
2021/01/16 00:56:04;;;;;;;8.60;4.88;;;;;;;0.72;82.33;102220.63;4915112;29;20028;-79
2021/01/16 00:58:36;;;;;;;9.18;5.55;;;;;;;0.70;82.68;102213.97;4947080;28;20033;-79
2021/01/16 01:01:16;;;;;;;10.38;5.72;;;;;;;0.63;83.09;102210.72;4927943;29;20031;-79
2021/01/16 01:03:44;;;;;;;8.43;5.22;;;;;;;0.60;83.91;102214.66;4942776;28;20023;-79
2021/01/16 01:06:10;;;;;;;11.63;5.80;;;;;;;0.76;83.34;102211.13;4933962;29;21063;-79
2021/01/16 01:08:35;;;;;;;9.85;5.35;;;;;;;0.89;82.45;102209.94;4940968;28;20035;-79
2021/01/16 01:11:01;;;;;;;10.23;5.65;;;;;;;0.78;82.42;102221.47;4942322;29;20039;-78
2021/01/16 01:13:26;;;;;;;10.30;5.47;;;;;;;0.72;83.23;102214.50;4925682;29;20039;-79
2021/01/16 01:15:52;;;;;;;10.02;5.30;;;;;;;0.68;83.80;102216.88;4957975;28;20045;-80
2021/01/16 01:18:18;;;;;;;9.82;5.30;;;;;;;0.75;83.83;102219.34;4934360;28;20035;-78
2021/01/16 01:20:43;;;;;;;11.18;5.85;;;;;;;0.82;83.14;102211.97;4940997;29;20106;-79
2021/01/16 01:23:09;;;;;;;8.57;5.35;;;;;;;0.86;82.76;102208.56;4924766;29;20032;-79
2021/01/16 01:25:54;;;;;;;12.15;5.65;;;;;;;0.73;82.47;102203.69;4934879;29;20039;-79
2021/01/16 01:28:20;;;;;;;10.40;5.40;;;;;;;0.71;81.88;102212.94;4870437;29;20093;-79
2021/01/16 01:30:45;;;;;;;10.65;5.53;;;;;;;0.67;82.09;102206.53;4850673;29;20046;-77
2021/01/16 01:33:17;;;;;;;10.82;5.40;;;;;;;0.73;81.84;102211.63;4843987;29;20433;-79
2021/01/16 01:35:42;;;;;;;;;;;;;;;0.69;82.54;102213.19;4862298;29;20419;-77
2021/01/16 01:38:14;;;;;;;12.43;5.20;;;;;;;0.73;81.85;102218.78;4867284;29;19956;-79
2021/01/16 01:40:40;;;;;;;11.40;5.70;;;;;;;0.78;80.96;102208.22;4873600;29;20061;-79
2021/01/16 01:43:05;;;;;;;10.32;5.63;;;;;;;0.76;81.10;102218.28;4864928;29;20040;-79
2021/01/16 01:45:31;;;;;;;12.05;5.95;;;;;;;0.74;81.03;102215.06;4858374;29;20053;-79
2021/01/16 01:47:56;;;;;;;8.85;5.10;;;;;;;0.68;81.13;102211.56;4870600;29;20050;-79
2021/01/16 01:50:22;;;;;;;14.20;5.88;;;;;;;0.73;81.93;102209.00;4835464;29;20410;-77
2021/01/16 01:52:49;;;;;;;10.90;5.53;;;;;;;0.80;81.06;102219.38;4845534;29;20052;-77
2021/01/16 01:55:15;;;;;;;9.82;5.40;;;;;;;0.67;81.49;102217.13;4848243;29;20042;-79
2021/01/16 01:57:49;;;;;;;9.00;5.38;;;;;;;0.85;80.55;102216.78;4829159;29;20526;-76
2021/01/16 02:00:18;;;;;;;9.02;4.88;;;;;;;0.77;80.56;102220.66;4832259;29;20037;-79
2021/01/16 02:02:44;;;;;;;9.43;5.68;;;;;;;0.74;80.81;102215.06;4869143;29;20551;-78
2021/01/16 02:05:11;;;;;;;9.43;5.15;;;;;;;0.78;80.36;102213.53;4875507;28;20142;-79
2021/01/16 02:07:37;;;;;;;9.43;4.82;;;;;;;0.70;79.90;102212.13;4940825;28;20034;-78
2021/01/16 02:10:09;;;;;;;9.82;4.85;;;;;;;0.62;80.45;102211.78;4950823;28;20104;-79
2021/01/16 02:12:35;;;;;;;7.82;4.82;;;;;;;0.62;80.58;102206.50;4929880;29;20035;-79
2021/01/16 02:15:08;;;;;;;9.63;4.95;;;;;;;0.67;80.54;102209.19;4926689;28;20087;-79
2021/01/16 02:17:37;;;;;;;13.15;5.22;;;;;;;0.67;79.52;102211.81;4928085;28;20046;-79
2021/01/16 02:20:14;;;;;;;8.52;4.93;;;;;;;0.55;79.74;102205.88;4952733;28;20094;-77
2021/01/16 02:22:52;;;;;;;8.73;4.97;;;;;;;0.51;80.49;102196.81;4952104;28;20110;-79
2021/01/16 02:25:30;;;;;;;8.63;4.90;;;;;;;0.52;80.33;102191.25;4949999;28;20101;-78
2021/01/16 02:28:25;;;;;;;8.48;4.95;;;;;;;0.52;80.33;102196.56;4938363;28;20077;-78
2021/01/16 02:30:51;;;;;;;8.63;4.95;;;;;;;0.54;80.03;102188.38;4872875;29;20430;-77
2021/01/16 02:33:19;;;;;;;10.98;5.28;;;;;;;0.51;80.25;102183.56;4880933;29;20116;-78
2021/01/16 02:36:20;;;;;;;9.25;4.95;;;;;;;0.58;80.20;102171.72;4877978;29;20049;-77
2021/01/16 02:39:10;;;;;;;10.18;5.13;;;;;;;0.54;79.84;102178.56;4809754;29;20079;-78
2021/01/16 02:41:52;;;;;;;7.25;4.50;;;;;;;0.71;79.38;102176.63;4828316;29;20050;-78
2021/01/16 02:44:40;;;;;;;8.90;4.78;;;;;;;0.67;79.54;102174.72;4827549;29;20431;-78
2021/01/16 02:47:32;;;;;;;8.32;4.53;;;;;;;0.77;79.30;102174.81;4776775;30;20126;-80
2021/01/16 02:50:08;;;;;;;11.30;5.18;;;;;;;0.60;79.45;102169.63;4778126;30;20075;-78
2021/01/16 02:52:39;;;;;;;8.70;4.82;;;;;;;0.61;79.99;102167.78;4768215;30;20087;-78
2021/01/16 02:55:07;;;;;;;11.23;5.47;;;;;;;0.56;80.17;102157.91;4758968;30;20051;-77
2021/01/16 02:57:33;;;;;;;8.07;4.55;;;;;;;0.63;79.95;102160.38;4768543;30;20032;-78
2021/01/16 02:59:58;;;;;;;9.98;5.38;;;;;;;0.69;80.10;102154.06;4788868;23;20046;-79
2021/01/16 03:02:24;;;;;;;11.07;5.75;;;;;;;0.60;80.32;102148.41;4950650;28;20050;-78
2021/01/16 03:04:49;;;;;;;11.02;5.65;;;;;;;0.77;79.89;102148.31;4970448;28;20121;-77
2021/01/16 03:07:16;;;;;;;10.60;5.10;;;;;;;0.63;80.71;102144.47;4970599;28;20038;-77
2021/01/16 03:09:42;;;;;;;10.52;5.80;;;;;;;0.69;80.86;102154.88;5000137;28;20027;-78
2021/01/16 03:12:09;;;;;;;9.68;5.05;;;;;;;0.77;80.34;102146.44;4973756;28;20037;-78
2021/01/16 03:14:55;;;;;;;9.05;5.03;;;;;;;0.60;80.69;102145.00;4975210;28;20054;-78
2021/01/16 03:17:25;;;;;;;9.27;4.90;;;;;;;0.57;81.39;102140.19;4955541;28;20433;-77
2021/01/16 03:19:51;;;;;;;9.73;5.40;;;;;;;0.49;81.61;102144.09;4962738;28;20025;-79
2021/01/16 03:22:25;;;;;;;9.93;5.47;;;;;;;0.61;82.61;102147.38;4968759;28;20343;-77
2021/01/16 03:24:52;;;;;;;10.77;5.57;;;;;;;0.67;82.73;102146.38;4986880;28;20030;-77
2021/01/16 03:27:18;;;;;;;11.20;6.13;;;;;;;0.67;82.54;102156.19;4992607;28;20121;-78
2021/01/16 03:29:45;;;;;;;15.82;6.70;;;;;;;0.69;82.21;102149.59;4973053;28;20046;-78
2021/01/16 03:32:11;;;;;;;12.45;6.63;;;;;;;0.71;82.80;102136.88;4991566;28;20537;-78
2021/01/16 03:34:39;;;;;;;13.18;6.22;;;;;;;0.66;83.46;102150.06;4959243;28;20113;-79
2021/01/16 03:37:06;;;;;;;10.63;5.80;;;;;;;0.68;83.58;102149.81;4974798;28;20042;-78
2021/01/16 03:39:32;;;;;;;13.55;6.38;;;;;;;0.64;84.21;102146.09;4991363;28;20070;-79
2021/01/16 03:41:58;;;;;;;13.48;6.55;;;;;;;0.53;84.72;102155.78;4960355;28;20521;-78
2021/01/16 03:44:24;;;;;;;11.65;6.55;;;;;;;0.63;84.47;102149.78;4957395;28;20030;-79
2021/01/16 03:46:49;;;;;;;11.20;6.18;;;;;;;0.63;84.93;102152.44;4968894;28;20046;-78
2021/01/16 03:49:15;;;;;;;12.50;5.95;;;;;;;0.60;84.65;102158.25;4986787;28;20034;-77
2021/01/16 03:51:41;;;;;;;12.02;6.45;;;;;;;0.69;84.44;102154.88;4956802;28;20720;-77
2021/01/16 03:54:08;;;;;;;12.30;6.00;;;;;;;0.62;84.58;102146.31;4962607;28;20038;-79
2021/01/16 03:56:34;;;;;;;12.07;6.18;;;;;;;0.54;84.17;102141.47;4997270;28;20046;-79
2021/01/16 03:59:20;;;;;;;12.68;6.40;;;;;;;0.63;84.32;102136.53;4962390;28;20096;-79
2021/01/16 04:01:46;;;;;;;11.18;6.03;;;;;;;0.73;83.99;102139.28;4900492;29;20044;-79
2021/01/16 04:04:32;;;;;;;12.35;6.18;;;;;;;0.62;84.33;102134.94;4918435;29;20047;-78
2021/01/16 04:06:57;;;;;;;11.98;6.20;;;;;;;0.76;83.61;102144.06;4910513;29;20093;-79
2021/01/16 04:09:22;;;;;;;11.52;5.97;;;;;;;0.74;83.32;102130.25;4927179;29;20074;-78
2021/01/16 04:11:48;;;;;;;10.70;6.20;;;;;;;0.61;84.12;102134.13;4885350;29;20040;-78
2021/01/16 04:14:15;;;;;;;13.75;6.50;;;;;;;0.64;84.27;102135.50;4925419;29;20525;-78
2021/01/16 04:17:01;;;;;;;11.50;5.93;;;;;;;0.57;84.62;102138.34;4886090;29;20209;-76
2021/01/16 04:19:27;;;;;;;11.55;5.60;;;;;;;0.61;84.77;102128.84;4863075;29;20506;-78
2021/01/16 04:21:52;;;;;;;12.30;6.03;;;;;;;0.57;84.74;102126.94;4863268;29;20048;-78
2021/01/16 04:24:18;;;;;;;10.30;5.50;;;;;;;0.57;84.98;102135.69;4881454;29;20091;-77
2021/01/16 04:26:43;;;;;;;13.05;6.32;;;;;;;0.49;84.86;102130.03;4852458;29;20041;-78
2021/01/16 04:29:09;;;;;;;14.57;6.50;;;;;;;0.63;84.16;102129.38;4847552;29;20040;-78
2021/01/16 04:31:34;;;;;;;9.90;5.55;;;;;;;0.65;84.56;102134.44;4849750;29;20037;-78
2021/01/16 04:34:00;;;;;;;13.13;6.30;;;;;;;0.57;84.51;102132.22;4864110;29;20080;-78
2021/01/16 04:36:25;;;;;;;10.32;5.70;;;;;;;0.55;84.94;102132.50;4884369;29;20522;-78
2021/01/16 04:38:51;;;;;;;12.27;6.05;;;;;;;0.57;84.86;102140.97;4877449;29;20558;-78
2021/01/16 04:41:19;;;;;;;9.70;5.65;;;;;;;0.67;84.04;102133.13;4834343;29;20052;-78
2021/01/16 04:43:47;;;;;;;11.70;6.35;;;;;;;0.63;84.32;102129.38;4876960;29;20052;-78
2021/01/16 04:46:13;;;;;;;11.32;5.50;;;;;;;0.59;84.38;102128.28;4901147;29;20040;-78
2021/01/16 04:48:41;;;;;;;14.75;6.57;;;;;;;0.54;84.52;102130.88;4919158;29;20050;-78
2021/01/16 04:51:06;;;;;;;11.90;6.40;;;;;;;0.60;84.89;102131.75;4900264;29;20481;-78
2021/01/16 04:53:40;;;;;;;11.45;6.28;;;;;;;0.71;83.93;102130.78;4918940;29;20027;-78
2021/01/16 04:56:09;;;;;;;11.80;6.18;;;;;;;0.63;83.84;102125.94;4929174;28;20066;-78
2021/01/16 04:58:37;;;;;;;12.27;6.38;;;;;;;0.59;84.41;102120.34;4980820;28;20048;-78
2021/01/16 05:01:07;;;;;;;11.93;6.40;;;;;;;0.62;85.21;102127.78;4993321;28;20037;-78
2021/01/16 05:03:44;;;;;;;12.13;6.13;;;;;;;0.69;84.34;102130.22;4963003;28;20483;-78
2021/01/16 05:06:12;;;;;;;11.52;6.53;;;;;;;0.61;84.53;102120.88;5013291;28;20034;-76
2021/01/16 05:08:42;;;;;;;9.48;6.22;;;;;;;0.66;84.70;102128.88;4975585;28;20038;-77
2021/01/16 05:11:17;;;;;;;12.18;6.25;;;;;;;0.76;83.99;102122.84;4978206;28;20118;-79
2021/01/16 05:13:45;;;;;;;12.77;6.72;;;;;;;0.67;83.92;102119.88;4969457;28;20034;-78
2021/01/16 05:16:12;;;;;;;11.40;5.90;;;;;;;0.68;83.97;102121.47;5000231;28;20116;-78
2021/01/16 05:18:44;;;;;;;10.40;5.93;;;;;;;0.55;84.50;102123.72;4991361;28;20034;-78
2021/01/16 05:21:11;;;;;;;11.68;6.80;;;;;;;0.44;85.22;102114.91;4987545;28;20029;-78
2021/01/16 05:23:42;;;;;;;10.73;6.30;;;;;;;0.35;86.36;102115.63;4981294;28;20027;-79
2021/01/16 05:26:09;;;;;;;;;;;;;;;0.54;85.88;102111.56;4975325;28;20039;-79
2021/01/16 05:28:35;;;;;;;15.65;6.30;;;;;;;0.52;85.67;102106.47;4982571;28;19913;-78
2021/01/16 05:31:02;;;;;;;12.98;6.22;;;;;;;0.50;85.58;102105.16;4997892;28;20031;-78
2021/01/16 05:33:38;;;;;;;12.80;6.40;;;;;;;0.55;86.07;102103.34;4964733;28;20030;-78
2021/01/16 05:36:09;;;;;;;13.13;6.47;;;;;;;0.49;86.28;102106.19;4991981;28;20049;-79
2021/01/16 05:38:37;;;;;;;13.70;6.70;;;;;;;0.51;86.28;102102.25;4955148;28;20034;-78
2021/01/16 05:41:14;;;;;;;12.20;6.50;;;;;;;0.57;86.40;102095.13;4974608;28;20046;-78
2021/01/16 05:43:44;;;;;;;10.73;5.95;;;;;;;0.45;86.73;102097.16;4971458;28;20085;-78
2021/01/16 05:46:15;;;;;;;12.77;6.68;;;;;;;0.55;86.65;102098.03;4976157;28;20053;-78
2021/01/16 05:48:41;;;;;;;13.38;6.32;;;;;;;0.56;86.73;102094.31;4980704;28;20081;-79
2021/01/16 05:51:07;;;;;;;12.55;6.47;;;;;;;0.51;86.44;102088.19;4975728;28;20034;-78
2021/01/16 05:53:33;;;;;;;15.10;6.97;;;;;;;0.52;86.46;102077.34;4959635;28;20022;-78
2021/01/16 05:56:00;;;;;;;11.30;6.25;;;;;;;0.55;86.43;102082.16;4975609;28;20042;-77
2021/01/16 05:58:34;;;;;;;13.50;6.70;;;;;;;0.46;86.52;102080.22;4975144;28;20595;-78
2021/01/16 06:01:07;;;;;;;13.10;6.93;;;;;;;0.59;86.62;102072.66;4972679;28;20026;-78
2021/01/16 06:03:38;;;;;;;10.07;5.85;;;;;;;0.41;87.00;102067.72;4963512;28;20491;-78
2021/01/16 06:06:10;;;;;;;11.43;6.43;;;;;;;0.51;86.88;102067.00;4974152;28;20034;-78
2021/01/16 06:08:50;;;;;;;12.40;6.15;;;;;;;0.49;86.26;102067.25;4975929;28;20125;-78
2021/01/16 06:11:17;;;;;;;12.32;6.78;;;;;;;0.53;87.05;102060.41;4988342;28;20030;-78
2021/01/16 06:13:43;;;;;;;12.80;6.32;;;;;;;0.45;86.16;102065.34;4961213;28;20049;-78
2021/01/16 06:16:17;;;;;;;13.32;6.63;;;;;;;0.43;86.10;102060.31;4971806;28;20105;-78
2021/01/16 06:18:51;;;;;;;11.18;5.85;;;;;;;0.47;86.37;102065.91;4968870;28;20045;-78
2021/01/16 06:21:23;;;;;;;10.25;6.38;;;;;;;0.53;85.93;102063.06;4953669;28;20038;-78
2021/01/16 06:24:00;;;;;;;12.85;6.80;;;;;;;0.32;86.16;102052.53;4992672;28;20109;-78
2021/01/16 06:26:26;;;;;;;13.50;6.45;;;;;;;0.48;85.72;102051.63;4959175;28;20227;-78
2021/01/16 06:29:01;;;;;;;11.02;6.25;;;;;;;0.52;85.27;102048.19;4976405;28;20026;-78
2021/01/16 06:31:33;;;;;;;13.40;6.28;;;;;;;0.63;85.49;102049.09;4994918;28;20113;-79
2021/01/16 06:34:02;;;;;;;12.63;6.57;;;;;;;0.60;85.25;102044.31;4948208;28;20042;-78
2021/01/16 06:36:33;;;;;;;12.05;6.00;;;;;;;0.55;85.59;102041.59;4997303;28;20483;-77
2021/01/16 06:39:02;;;;;;;11.55;6.22;;;;;;;0.48;85.20;102044.47;4974569;28;20031;-78
2021/01/16 06:41:33;;;;;;;15.65;6.40;;;;;;;0.55;85.30;102037.09;4992579;28;20038;-78
2021/01/16 06:43:59;;;;;;;9.60;5.82;;;;;;;0.57;84.71;102032.34;4990715;28;20510;-78
2021/01/16 06:46:45;;;;;;;14.55;6.80;;;;;;;0.60;84.75;102026.53;4974296;28;20483;-78
2021/01/16 06:49:24;;;;;;;13.38;6.68;;;;;;;0.47;85.19;102020.88;4973677;28;20056;-78
2021/01/16 06:51:51;;;;;;;10.50;5.70;;;;;;;0.58;85.06;102020.69;4977031;28;20049;-78
2021/01/16 06:54:32;;;;;;;12.55;6.88;;;;;;;0.57;84.24;102021.75;4972001;28;20438;-79
2021/01/16 06:57:08;;;;;;;11.60;6.35;;;;;;;0.49;85.05;102016.13;4981306;28;20122;-78
2021/01/16 06:59:36;;;;;;;10.60;6.05;;;;;;;0.57;85.24;102015.66;4984388;28;20034;-78
2021/01/16 07:02:32;;;;;;;11.52;5.85;;;;;;;0.50;85.40;102010.59;4982747;28;20121;-78
2021/01/16 07:05:01;;;;;;;12.77;5.93;;;;;;;0.54;85.57;102021.47;4958961;28;20089;-79
2021/01/16 07:07:38;;;;;;;12.23;6.15;;;;;;;0.53;85.69;102020.66;4988916;28;20045;-78
2021/01/16 07:10:14;;;;;;;10.77;6.22;;;;;;;0.49;85.71;102011.63;4994304;28;20113;-78
2021/01/16 07:12:49;;;;;;;14.60;5.82;;;;;;;0.57;85.35;102011.16;4969396;28;20058;-79
2021/01/16 07:15:17;;;;;;;11.10;6.43;;;;;;;0.68;85.13;102004.88;4963031;28;20045;-78
2021/01/16 07:17:44;;;;;;;11.43;6.18;;;;;;;0.58;84.84;102009.31;4974869;28;20762;-78
2021/01/16 07:20:10;;;;;;;9.45;6.00;;;;;;;0.55;85.16;102004.50;4970014;28;20475;-79
2021/01/16 07:22:41;;;;;;;14.50;6.50;;;;;;;0.51;85.45;102003.41;4972394;28;20034;-78
2021/01/16 07:25:08;;;;;;;14.07;6.60;;;;;;;0.52;85.34;101999.72;4983826;28;20117;-78
2021/01/16 07:27:35;;;;;;;11.93;6.18;;;;;;;0.28;85.76;101996.63;4958613;28;20066;-79
2021/01/16 07:30:05;;;;;;;12.32;6.47;;;;;;;0.42;85.74;101997.81;4985925;28;20478;-78
2021/01/16 07:32:38;;;;;;;11.43;6.35;;;;;;;0.41;85.86;101992.75;4974198;28;20073;-78
2021/01/16 07:35:06;;;;;;;11.95;6.03;;;;;;;0.35;86.10;101988.47;4989099;28;20088;-78
2021/01/16 07:37:34;;;;;;;10.55;6.20;;;;;;;0.28;85.41;101993.97;4989454;28;20030;-78
2021/01/16 07:39:59;;;;;;;11.60;6.68;;;;;;;0.30;86.05;101985.78;4996856;28;20053;-78
2021/01/16 07:42:27;;;;;;;12.45;6.15;;;;;;;0.35;85.81;101988.47;4979738;28;20026;-76
2021/01/16 07:45:10;;;;;;;11.85;6.47;;;;;;;0.37;85.48;101986.38;4959286;28;20121;-78
2021/01/16 07:47:42;;;;;;;14.68;7.07;;;;;;;0.10;86.03;101983.75;4978280;28;20132;-78
2021/01/16 07:50:22;;;;;;;11.18;6.32;;;;;;;0.26;86.18;101989.97;4971105;28;20053;-78
2021/01/16 07:53:08;;;;;;;13.70;6.23;;;;;;;0.40;85.17;101978.72;4967344;28;20081;-78
2021/01/16 07:55:37;;;;;;;12.68;6.38;;;;;;;0.37;84.97;101981.84;4973113;28;20045;-78
2021/01/16 07:58:05;;;;;;;17.38;8.07;;;;;;;0.14;85.99;101978.75;4964171;28;20491;-78
2021/01/16 08:00:37;;;;;;;16.20;7.90;;;;;;;0.17;85.70;101976.44;4976287;28;20059;-77
2021/01/16 08:03:18;;;;;;;15.00;7.28;;;;;;;0.33;85.71;101975.47;4964294;28;20047;-77
2021/01/16 08:06:28;;;;;;;16.80;7.00;;;;;;;0.31;85.97;101979.44;4977119;28;20041;-77
2021/01/16 08:09:09;;;;;;;11.65;5.97;;;;;;;0.17;85.31;101980.91;4966765;28;20050;-77
2021/01/16 08:11:36;;;;;;;13.05;7.05;;;;;;;-0.03;86.26;101978.88;4949632;28;20690;-77
2021/01/16 08:14:06;;;;;;;13.40;6.78;;;;;;;-0.12;87.32;101978.53;4970468;28;20518;-77
2021/01/16 08:16:35;;;;;;;14.60;6.55;;;;;;;-0.03;87.50;101981.53;4985429;28;20136;-77
2021/01/16 08:19:12;;;;;;;12.80;6.75;;;;;;;-0.20;88.19;101980.84;4977114;28;20041;-77
2021/01/16 08:21:52;;;;;;;12.20;6.22;;;;;;;-0.12;87.54;101977.75;4975153;28;20030;-77
2021/01/16 08:24:19;;;;;;;13.15;6.40;;;;;;;-0.07;87.23;101981.25;4966453;28;20466;-77
2021/01/16 08:27:02;;;;;;;11.05;6.22;;;;;;;-0.22;87.88;101970.53;4990901;28;20042;-77
2021/01/16 08:29:30;;;;;;;16.25;6.75;;;;;;;-0.29;88.46;101982.34;4977595;28;20041;-77
2021/01/16 08:32:22;;;;;;;22.92;7.88;;;;;;;-0.18;88.62;101976.91;4972649;28;20034;-76
2021/01/16 08:34:48;;;;;;;20.83;7.75;;;;;;;-0.21;88.09;101972.09;4998850;28;20407;-77
2021/01/16 08:37:28;;;;;;;14.90;7.32;;;;;;;0.02;87.32;101983.44;4958450;28;20053;-77
2021/01/16 08:39:53;;;;;;;13.82;6.78;;;;;;;0.13;86.50;101974.53;4973147;28;20116;-77
2021/01/16 08:42:24;;;;;;;15.60;7.32;;;;;;;0.00;87.18;101981.03;4957496;28;20086;-78
2021/01/16 08:44:51;;;;;;;13.95;6.70;;;;;;;0.17;86.33;101983.56;4977156;28;20418;-77
2021/01/16 08:47:17;;;;;;;13.50;5.68;;;;;;;0.38;85.00;101977.38;4970600;28;20034;-78
2021/01/16 08:49:42;;;;;;;11.80;5.93;;;;;;;0.27;85.43;101981.00;4987016;28;20038;-78
2021/01/16 08:52:08;;;;;;;11.43;5.97;;;;;;;0.31;84.99;101980.22;4975776;28;20030;-77
2021/01/16 08:54:34;;;;;;;12.57;5.95;;;;;;;0.44;84.70;101973.72;4981998;28;20034;-78
2021/01/16 08:56:59;;;;;;;11.40;5.50;;;;;;;0.48;85.22;101977.44;4985861;28;20134;-78
2021/01/16 08:59:30;;;;;;;10.32;5.53;;;;;;;0.59;84.58;101976.44;4987147;28;20162;-78
2021/01/16 09:02:12;;;;;;;8.52;5.25;;;;;;;0.55;84.48;101980.66;4998616;23;20043;-78
2021/01/16 09:04:40;;;;;;;10.73;5.82;;;;;;;0.49;84.28;101973.72;4952791;28;20049;-78
2021/01/16 09:07:26;;;;;;;15.55;6.97;;;;;;;0.65;84.14;101973.59;4938690;28;20445;-77
2021/01/16 09:09:59;;;;;;;15.40;6.50;;;;;;;0.89;82.74;101980.06;4976049;28;20042;-78
2021/01/16 09:12:35;;;;;;;18.20;7.45;;;;;;;0.93;81.63;101977.69;4946191;28;20050;-78
2021/01/16 09:15:39;;;;;;;16.92;7.57;;;;;;;0.84;80.93;101972.09;4931760;28;20035;-78
2021/01/16 09:18:11;;;;;;;15.50;7.05;;;;;;;0.94;81.05;101976.66;4970177;28;20027;-77
2021/01/16 09:20:45;;;;;;;12.82;6.50;;;;;;;0.96;81.42;101973.75;4925953;29;20035;-78
2021/01/16 09:23:36;;;;;;;13.40;6.78;;;;;;;0.97;81.33;101978.78;4932299;29;20031;-78
2021/01/16 09:26:04;;;;;;;16.98;7.25;;;;;;;1.40;78.49;101972.34;4946227;28;20039;-78
2021/01/16 09:28:45;;;;;;;15.40;7.00;;;;;;;1.32;78.71;101960.38;4958346;28;20046;-78
2021/01/16 09:31:40;;;;;;;15.27;7.13;;;;;;;1.31;79.06;101964.09;4937271;28;20043;-78
2021/01/16 09:34:12;;;;;;;14.40;7.22;;;;;;;1.31;78.76;101961.44;4945974;28;20122;-77
2021/01/16 09:36:45;;;;;;;12.90;6.80;;;;;;;1.56;76.96;101956.22;4944779;29;20034;-78
2021/01/16 09:39:22;;;;;;;12.43;6.22;;;;;;;1.63;76.29;101956.75;4935695;28;20045;-77
2021/01/16 09:41:51;;;;;;;12.00;6.38;;;;;;;1.52;77.67;101951.69;4955507;29;20037;-77
2021/01/16 09:44:39;;;;;;;12.90;6.53;;;;;;;1.54;77.43;101946.91;4925291;28;20038;-78
2021/01/16 09:47:25;;;;;;;11.57;5.93;;;;;;;1.76;75.48;101953.56;4949861;29;20039;-77
2021/01/16 09:50:07;;;;;;;12.27;6.38;;;;;;;1.59;77.06;101953.03;4926918;28;20050;-77
2021/01/16 09:52:35;;;;;;;9.93;5.15;;;;;;;1.58;77.47;101947.97;4947118;29;20752;-77
2021/01/16 09:55:03;;;;;;;9.88;5.45;;;;;;;1.86;76.36;101944.03;4936233;29;20027;-77
2021/01/16 09:57:36;;;;;;;10.00;5.57;;;;;;;1.83;75.08;101943.50;4946801;28;20042;-78
2021/01/16 10:00:13;;;;;;;9.38;5.30;;;;;;;2.09;73.51;101949.59;4968135;28;20062;-77
2021/01/16 10:02:40;;;;;;;8.63;4.53;;;;;;;2.13;72.87;101941.94;4956321;28;20593;-77
2021/01/16 10:05:18;;;;;;;10.25;5.25;;;;;;;2.02;73.04;101935.00;4955268;28;20043;-77
2021/01/16 10:07:43;;;;;;;6.07;4.20;;;;;;;1.94;74.00;101938.19;4949214;28;20030;-77
2021/01/16 10:10:17;;;;;;;7.25;4.72;;;;;;;1.84;75.22;101946.94;4928059;29;20117;-77
2021/01/16 10:12:44;;;;;;;6.85;4.18;;;;;;;1.71;75.85;101939.50;4934427;29;20055;-77
2021/01/16 10:15:19;;;;;;;8.50;4.93;;;;;;;2.06;73.89;101930.75;4937167;29;20122;-77
2021/01/16 10:17:53;;;;;;;9.52;5.43;;;;;;;2.06;73.57;101928.91;4920637;28;20053;-77
2021/01/16 10:20:21;;;;;;;9.70;5.22;;;;;;;1.98;74.08;101925.97;4944942;28;20073;-77
2021/01/16 10:22:54;;;;;;;7.68;4.53;;;;;;;2.03;72.84;101921.47;4928126;28;20035;-77
2021/01/16 10:25:36;;;;;;;8.85;5.13;;;;;;;2.21;72.03;101933.41;4933828;29;20050;-78
2021/01/16 10:28:02;;;;;;;11.18;5.18;;;;;;;2.29;72.46;101919.56;4951200;28;20058;-78
2021/01/16 10:30:32;;;;;;;9.25;4.90;;;;;;;2.26;72.12;101923.59;4932970;29;20070;-78
2021/01/16 10:32:59;;;;;;;7.47;4.75;;;;;;;2.12;73.19;101903.13;4926673;28;20038;-77
2021/01/16 10:35:28;;;;;;;10.52;5.32;;;;;;;2.15;74.23;101905.28;4921343;29;20043;-77
2021/01/16 10:37:57;;;;;;;9.98;5.10;;;;;;;2.34;73.58;101896.44;4936070;28;20073;-77
2021/01/16 10:40:24;;;;;;;9.85;4.47;;;;;;;2.25;73.32;101898.06;4939325;29;20061;-77
2021/01/16 10:42:54;;;;;;;12.25;5.22;;;;;;;2.37;73.11;101893.28;4934742;29;20031;-77
2021/01/16 10:45:21;;;;;;;8.75;4.35;;;;;;;2.23;74.82;101891.41;4915374;29;20051;-77
2021/01/16 10:47:48;;;;;;;9.10;4.60;;;;;;;2.32;74.06;101882.63;4934459;29;20614;-77
2021/01/16 10:50:23;;;;;;;8.52;4.50;;;;;;;2.38;73.33;101875.47;4917144;29;20087;-77
2021/01/16 10:53:09;;;;;;;11.52;5.00;;;;;;;2.37;73.14;101872.00;4915059;29;20082;-76
2021/01/16 10:55:54;;;;;;;8.10;5.18;;;;;;;2.61;72.77;101882.84;4956823;28;20498;-78
2021/01/16 10:58:22;;;;;;;12.68;5.75;;;;;;;2.32;73.09;101879.97;4934807;29;20043;-77
2021/01/16 11:00:54;;;;;;;24.25;8.82;;;;;;;3.22;71.50;101883.34;4947495;28;20035;-77
2021/01/16 11:03:26;;;;;;;15.02;7.22;;;;;;;2.98;71.18;101877.88;4924031;29;20065;-77
2021/01/16 11:05:53;;;;;;;10.27;5.68;;;;;;;2.84;72.09;101868.94;4936805;29;20043;-77
2021/01/16 11:08:26;;;;;;;13.23;6.40;;;;;;;2.79;70.88;101870.81;4936119;29;20019;-77
2021/01/16 11:10:52;;;;;;;11.07;5.65;;;;;;;2.68;71.74;101865.53;4925144;29;20039;-77
2021/01/16 11:13:23;;;;;;;9.85;5.75;;;;;;;2.64;72.00;101864.47;4918917;29;20492;-77
2021/01/16 11:15:54;;;;;;;12.63;5.80;;;;;;;2.64;71.92;101861.81;4936220;28;20122;-77
2021/01/16 11:18:34;;;;;;;10.52;5.88;;;;;;;2.52;73.33;101860.53;4915801;29;20028;-77
2021/01/16 11:21:05;;;;;;;10.45;6.18;;;;;;;2.56;74.09;101846.44;4945169;28;20122;-77
2021/01/16 11:23:47;;;;;;;8.65;5.05;;;;;;;2.68;73.84;101849.59;4938879;29;20400;-77
2021/01/16 11:26:15;;;;;;;10.50;5.70;;;;;;;2.73;72.74;101852.22;4950297;28;20412;-77
2021/01/16 11:28:54;;;;;;;8.13;5.35;;;;;;;2.74;71.19;101842.38;4951211;28;20572;-76
2021/01/16 11:31:24;;;;;;;11.80;5.15;;;;;;;2.77;70.28;101841.03;4941627;28;20030;-77
2021/01/16 11:34:17;;;;;;;10.35;5.60;;;;;;;2.44;70.94;101840.63;4918129;29;20115;-77
2021/01/16 11:37:04;;;;;;;8.05;4.65;;;;;;;2.48;69.22;101839.00;4929855;29;20047;-77
2021/01/16 11:39:49;;;;;;;7.95;4.50;;;;;;;2.60;69.36;101833.38;4931028;29;20519;-76
2021/01/16 11:42:16;;;;;;;9.75;5.25;;;;;;;2.58;69.93;101832.88;4949476;28;20407;-77
2021/01/16 11:44:59;;;;;;;12.95;5.47;;;;;;;2.40;71.64;101828.94;4937262;28;20057;-77
2021/01/16 11:47:27;;;;;;;8.82;4.75;;;;;;;2.28;73.81;101825.81;4941234;28;20038;-77